Cerlak, Russia
Current Conditions -  °F | °C
As of 9:00 AM on Thursday 23 Oct 2014 (Local Time) from UNOO Reporting Station
Broken Clouds Broken Clouds  
Wind Chill: 30°   Ceiling: 2000
Heat Index: 34°   Visibility: 6mi
Dew Point: 32°   Wind: 4mph
Humidity: 93%   Direction: 140°SE
Pressure: 29.77"   Gusts: NA
Location:  54.17°N, 74.8°E
Report Text: UNOO 230300Z 14002MPS 9999 BKN020CB 01/00 Q1008 25810545 NOSIGRMK QFE748
Loading
Personal Weather Stations






























Interactive Weather Map
Tropical Storm Tracking
New forecast layout! Learn more

10-Day Weather Forecast

Advertisements
Track Severe Weather on mobile